Time;durP1;ratioP1;P1;durP2;ratioP2;P2;SDS_P1;SDS_P2;PMS_P1;PMS_P2;Temp;Humidity;BMP_temperature;BMP_pressure;BME280_temperature;BME280_humidity;BME280_pressure;Samples;Min_cycle;Max_cycle;Signal;HPM_P1;HPM_P2
2022/12/04 00:01:12;;;;;;;22.30;10.07;;;0.40;99.90;;;;;;5003094;28;20037;-30
2022/12/04 00:03:38;;;;;;;26.95;9.98;;;0.40;99.90;;;;;;5002385;28;20049;-29
2022/12/04 00:06:11;;;;;;;21.95;9.48;;;0.40;99.90;;;;;;5006645;28;20407;-35
2022/12/04 00:08:37;;;;;;;20.33;8.77;;;0.40;99.90;;;;;;5005246;28;20038;-36
2022/12/04 00:11:05;;;;;;;22.20;9.88;;;0.40;99.90;;;;;;5008551;28;20038;-33
2022/12/04 00:13:32;;;;;;;25.40;11.07;;;0.40;99.90;;;;;;5001881;28;20023;-29
2022/12/04 00:15:58;;;;;;;18.20;8.65;;;0.40;99.90;;;;;;5004899;28;20038;-30
2022/12/04 00:18:24;;;;;;;23.05;10.73;;;0.40;99.90;;;;;;5003899;28;20048;-30
2022/12/04 00:20:50;;;;;;;26.42;9.50;;;0.40;99.90;;;;;;5005025;28;20030;-30
2022/12/04 00:23:15;;;;;;;26.83;11.75;;;0.40;99.90;;;;;;5001275;28;20046;-33
2022/12/04 00:25:41;;;;;;;27.27;11.05;;;0.40;99.90;;;;;;5002424;28;20038;-29
2022/12/04 00:28:07;;;;;;;31.23;12.00;;;0.40;99.90;;;;;;5007046;28;20157;-30
2022/12/04 00:30:32;;;;;;;24.25;9.88;;;0.40;99.90;;;;;;5002809;28;20045;-30
2022/12/04 00:32:58;;;;;;;19.95;9.82;;;0.30;99.90;;;;;;5000527;28;20130;-29
2022/12/04 00:35:25;;;;;;;19.98;9.85;;;0.30;99.90;;;;;;5005812;28;20087;-32
2022/12/04 00:37:50;;;;;;;25.45;8.60;;;0.30;99.90;;;;;;5004165;28;20031;-29
2022/12/04 00:40:16;;;;;;;21.98;10.20;;;0.30;99.90;;;;;;5002370;28;20087;-30
2022/12/04 00:42:41;;;;;;;22.20;9.38;;;0.30;99.90;;;;;;5002293;28;20048;-30
2022/12/04 00:45:07;;;;;;;26.23;10.75;;;0.30;99.90;;;;;;5002077;28;20048;-30
2022/12/04 00:47:33;;;;;;;19.88;9.23;;;0.30;99.90;;;;;;4999145;28;20029;-30
2022/12/04 00:49:58;;;;;;;17.80;7.82;;;0.30;99.90;;;;;;5002718;28;20022;-30
2022/12/04 00:52:24;;;;;;;20.52;9.15;;;0.30;99.90;;;;;;5001442;28;20030;-30
2022/12/04 00:54:50;;;;;;;18.15;9.15;;;0.40;99.90;;;;;;5005493;28;20088;-32
2022/12/04 00:57:15;;;;;;;26.92;10.75;;;0.40;99.90;;;;;;5004137;28;20030;-29
2022/12/04 00:59:41;;;;;;;23.58;9.20;;;0.40;99.90;;;;;;5004567;28;20033;-32
2022/12/04 01:02:06;;;;;;;16.88;8.30;;;0.40;99.90;;;;;;5001472;28;20107;-30
2022/12/04 01:04:32;;;;;;;19.23;8.60;;;0.40;99.90;;;;;;5003841;28;20026;-29
2022/12/04 01:06:58;;;;;;;18.23;8.90;;;0.40;99.90;;;;;;5006287;28;20046;-29
2022/12/04 01:09:23;;;;;;;18.88;7.82;;;0.40;99.90;;;;;;5000534;28;20068;-31
2022/12/04 01:11:49;;;;;;;22.40;9.18;;;0.50;99.90;;;;;;5009970;28;20034;-33
2022/12/04 01:14:14;;;;;;;20.27;9.57;;;0.40;99.90;;;;;;5009661;28;20026;-30
2022/12/04 01:16:40;;;;;;;20.02;8.90;;;0.40;99.90;;;;;;5007965;28;20122;-30
2022/12/04 01:19:08;;;;;;;20.17;8.15;;;0.40;99.90;;;;;;5006029;28;20455;-33
2022/12/04 01:21:35;;;;;;;18.42;8.90;;;0.50;99.90;;;;;;5008616;28;20467;-30
2022/12/04 01:24:01;;;;;;;19.90;9.48;;;0.40;99.90;;;;;;5007634;28;20034;-29
2022/12/04 01:26:26;;;;;;;26.48;10.60;;;0.40;99.90;;;;;;5005373;28;20045;-30
2022/12/04 01:28:52;;;;;;;21.15;9.05;;;0.40;99.90;;;;;;5004969;28;20087;-30
2022/12/04 01:31:20;;;;;;;19.20;8.70;;;0.40;99.90;;;;;;5007689;28;20491;-29
2022/12/04 01:33:47;;;;;;;20.13;9.60;;;0.40;99.90;;;;;;5010994;28;20029;-30
2022/12/04 01:36:17;;;;;;;18.40;9.25;;;0.40;99.90;;;;;;5005756;28;20095;-29
2022/12/04 01:38:42;;;;;;;19.45;9.60;;;0.50;99.90;;;;;;5004596;28;20044;-30
2022/12/04 01:41:09;;;;;;;20.02;9.70;;;0.50;99.90;;;;;;5005597;28;20029;-32
2022/12/04 01:43:36;;;;;;;25.90;11.10;;;0.40;99.90;;;;;;5009148;28;20400;-29
2022/12/04 01:46:03;;;;;;;16.70;8.27;;;0.40;99.90;;;;;;5010620;28;20463;-30
2022/12/04 01:48:39;;;;;;;17.73;8.88;;;0.50;99.90;;;;;;5002467;28;20053;-33
2022/12/04 01:51:24;;;;;;;18.25;8.65;;;0.50;99.90;;;;;;5004414;28;20084;-30
2022/12/04 01:53:56;;;;;;;20.63;8.30;;;0.50;99.90;;;;;;5008206;28;20443;-30
2022/12/04 01:56:32;;;;;;;15.02;7.60;;;0.50;99.90;;;;;;5008842;28;20034;-30
2022/12/04 01:59:00;;;;;;;15.93;8.25;;;0.50;99.90;;;;;;5004252;28;20034;-31
2022/12/04 02:01:28;;;;;;;;;;;0.50;99.90;;;;;;5008593;28;20040;-32
2022/12/04 02:03:53;;;;;;;14.35;7.75;;;0.50;99.90;;;;;;5008333;28;19917;-33
2022/12/04 02:06:19;;;;;;;19.67;9.50;;;0.50;99.90;;;;;;5009151;28;20100;-31
2022/12/04 02:08:45;;;;;;;16.65;8.55;;;0.50;99.90;;;;;;5005249;28;20022;-32
2022/12/04 02:11:28;;;;;;;17.60;8.98;;;0.50;99.90;;;;;;5009533;28;20403;-32
2022/12/04 02:14:10;;;;;;;18.02;8.90;;;0.50;99.90;;;;;;4997025;28;20029;-32
2022/12/04 02:17:00;;;;;;;20.05;9.13;;;0.50;99.90;;;;;;5009387;28;20225;-33
2022/12/04 02:19:55;;;;;;;15.23;7.80;;;0.50;99.90;;;;;;5008287;28;20540;-32
2022/12/04 02:22:30;;;;;;;15.90;7.32;;;0.50;99.90;;;;;;5005011;28;20038;-33
2022/12/04 02:25:15;;;;;;;17.70;9.00;;;0.50;99.90;;;;;;5005763;28;20487;-35
2022/12/04 02:27:47;;;;;;;20.75;8.73;;;0.60;99.90;;;;;;5003194;28;20029;-32
2022/12/04 02:30:13;;;;;;;16.77;7.60;;;0.60;99.90;;;;;;5005185;28;20080;-34
2022/12/04 02:32:39;;;;;;;22.23;9.02;;;0.60;99.90;;;;;;5005217;28;20201;-33
2022/12/04 02:35:20;;;;;;;20.08;9.63;;;0.60;99.90;;;;;;5006024;28;20379;-32
2022/12/04 02:37:52;;;;;;;23.33;9.20;;;0.60;99.90;;;;;;5008447;28;20045;-33
2022/12/04 02:40:24;;;;;;;31.95;9.38;;;0.60;99.90;;;;;;4991676;28;20491;-33
2022/12/04 02:42:55;;;;;;;17.85;7.38;;;0.60;99.90;;;;;;4989182;28;20026;-38
2022/12/04 02:45:26;;;;;;;20.63;9.30;;;0.60;99.90;;;;;;4985281;28;20121;-35
2022/12/04 02:47:54;;;;;;;14.00;7.13;;;0.70;99.90;;;;;;4989448;28;20127;-35
2022/12/04 02:50:22;;;;;;;21.95;9.13;;;0.70;99.90;;;;;;4988309;28;20499;-36
2022/12/04 02:52:56;;;;;;;16.87;8.43;;;0.70;99.90;;;;;;4982056;28;20034;-34
2022/12/04 02:55:29;;;;;;;17.90;7.85;;;0.70;99.90;;;;;;4979626;28;20660;-35
2022/12/04 02:58:01;;;;;;;19.65;8.40;;;0.70;99.90;;;;;;4982703;28;20189;-33
2022/12/04 03:00:29;;;;;;;22.65;9.43;;;0.70;99.90;;;;;;4987067;28;20030;-36
2022/12/04 03:02:54;;;;;;;22.05;10.23;;;0.60;99.90;;;;;;4984536;28;20477;-33
2022/12/04 03:05:26;;;;;;;22.88;9.18;;;0.60;99.90;;;;;;4982657;28;20033;-34
2022/12/04 03:07:55;;;;;;;16.95;8.38;;;0.60;99.90;;;;;;4983409;28;20081;-32
2022/12/04 03:10:35;;;;;;;15.82;7.55;;;0.70;99.90;;;;;;4990114;28;20043;-33
2022/12/04 03:13:10;;;;;;;16.33;6.90;;;0.70;99.90;;;;;;4986720;28;20088;-34
2022/12/04 03:15:44;;;;;;;17.17;8.75;;;0.70;99.90;;;;;;4981528;28;20038;-34
2022/12/04 03:18:17;;;;;;;15.02;8.55;;;0.70;99.90;;;;;;4985830;28;20476;-36
2022/12/04 03:20:46;;;;;;;19.35;9.35;;;0.70;99.90;;;;;;4984502;28;20427;-37
2022/12/04 03:23:25;;;;;;;20.15;8.48;;;0.70;99.90;;;;;;4985652;28;20030;-38
2022/12/04 03:26:22;;;;;;;17.23;8.40;;;0.70;99.90;;;;;;4984741;28;21433;-33
2022/12/04 03:29:07;;;;;;;16.25;8.38;;;0.70;99.90;;;;;;4985367;28;20107;-32
2022/12/04 03:31:39;;;;;;;16.33;8.13;;;0.70;99.90;;;;;;4989166;28;20060;-35
2022/12/04 03:34:06;;;;;;;16.75;8.27;;;0.70;99.90;;;;;;4980523;28;20518;-34
2022/12/04 03:36:38;;;;;;;22.33;8.48;;;0.70;99.90;;;;;;4983310;28;20113;-33
2022/12/04 03:39:19;;;;;;;17.60;9.02;;;0.80;99.90;;;;;;4982007;28;20061;-38
2022/12/04 03:42:25;;;;;;;21.65;8.05;;;0.80;99.90;;;;;;4982661;28;20871;-36
2022/12/04 03:45:02;;;;;;;14.38;7.90;;;0.80;99.90;;;;;;4977438;28;20042;-36
2022/12/04 03:47:37;;;;;;;14.93;7.95;;;0.80;99.90;;;;;;4982193;28;21784;-36
2022/12/04 03:50:17;;;;;;;15.27;7.47;;;0.80;99.90;;;;;;4983400;28;20554;-36
2022/12/04 03:52:50;;;;;;;12.45;7.13;;;0.80;99.90;;;;;;4984113;28;20033;-37
2022/12/04 03:55:28;;;;;;;19.85;9.40;;;0.80;99.90;;;;;;4986166;28;20044;-32
2022/12/04 03:58:01;;;;;;;16.33;7.25;;;0.80;99.90;;;;;;4982919;28;20068;-36
2022/12/04 04:00:28;;;;;;;16.92;9.50;;;0.90;99.90;;;;;;4985116;28;20048;-35
2022/12/04 04:03:02;;;;;;;17.42;8.23;;;0.80;99.90;;;;;;4983252;28;20050;-32
2022/12/04 04:05:31;;;;;;;14.00;8.65;;;0.90;99.90;;;;;;4983206;28;20546;-34
2022/12/04 04:08:24;;;;;;;14.95;7.03;;;0.80;99.90;;;;;;4984415;28;20054;-33
2022/12/04 04:10:47;;;;;;;14.45;7.68;;;0.80;99.90;;;;;;4993345;28;20058;-36
2022/12/04 04:24:40;;;;;;;15.02;7.85;;;0.80;99.90;;;;;;4984096;28;20111;-36
2022/12/04 04:27:06;;;;;;;16.35;7.53;;;0.80;99.90;;;;;;4981942;28;20782;-32
2022/12/04 04:29:32;;;;;;;14.27;7.78;;;0.80;99.90;;;;;;4984855;28;20034;-36
2022/12/04 04:32:32;;;;;;;17.55;8.52;;;0.80;99.90;;;;;;4986438;28;20626;-34
2022/12/04 04:35:39;;;;;;;10.95;5.18;;;0.80;99.90;;;;;;4984047;28;20763;-33
2022/12/04 04:38:13;;;;;;;13.60;7.00;;;0.90;99.90;;;;;;4951135;28;20575;-34
2022/12/04 04:40:52;;;;;;;11.15;7.03;;;0.90;99.90;;;;;;4984006;28;20355;-36
2022/12/04 04:43:53;;;;;;;10.60;6.78;;;0.90;99.90;;;;;;4981682;28;20022;-32
2022/12/04 04:46:44;;;;;;;12.25;6.28;;;0.90;99.90;;;;;;4983008;28;21807;-34
2022/12/04 04:49:12;;;;;;;16.85;7.07;;;0.90;99.90;;;;;;4984399;28;20042;-34
2022/12/04 04:51:39;;;;;;;13.52;6.65;;;0.90;99.90;;;;;;4988729;28;20048;-37
2022/12/04 04:54:08;;;;;;;12.52;7.15;;;0.90;99.90;;;;;;4981281;28;20376;-37
2022/12/04 04:56:40;;;;;;;11.10;5.85;;;0.90;99.90;;;;;;4988000;28;20467;-32
2022/12/04 04:59:05;;;;;;;11.95;6.63;;;0.90;99.90;;;;;;4986170;28;20088;-31
2022/12/04 05:01:31;;;;;;;14.30;7.28;;;0.90;99.90;;;;;;4986567;28;20084;-33
2022/12/04 05:03:57;;;;;;;16.50;7.10;;;0.90;99.90;;;;;;4987121;28;20301;-30
2022/12/04 05:06:22;;;;;;;12.32;5.10;;;1.00;99.90;;;;;;4986327;28;20550;-31
2022/12/04 05:08:48;;;;;;;12.43;6.18;;;1.00;99.90;;;;;;4983175;28;20665;-31
2022/12/04 05:11:15;;;;;;;10.07;5.05;;;1.00;99.90;;;;;;4986679;28;20376;-31
2022/12/04 05:13:41;;;;;;;14.27;6.53;;;1.00;99.90;;;;;;4988712;28;20123;-32
2022/12/04 05:16:11;;;;;;;17.88;6.88;;;1.00;99.90;;;;;;4989397;28;20080;-31
2022/12/04 05:18:37;;;;;;;15.10;7.43;;;1.10;99.90;;;;;;4991014;28;20037;-30
2022/12/04 05:21:15;;;;;;;45.45;18.73;;;1.10;99.90;;;;;;4986684;28;20124;-31
2022/12/04 05:23:41;;;;;;;60.42;23.23;;;1.10;99.90;;;;;;4985717;28;20057;-29
2022/12/04 05:26:06;;;;;;;149.88;55.05;;;1.20;99.90;;;;;;4988814;28;20068;-29
2022/12/04 05:28:32;;;;;;;131.48;42.50;;;1.20;99.90;;;;;;4987691;28;20026;-31
2022/12/04 05:31:00;;;;;;;104.35;36.38;;;1.20;99.90;;;;;;4991078;28;20069;-33
2022/12/04 05:33:26;;;;;;;54.83;19.70;;;1.20;99.90;;;;;;4985976;28;20754;-32
2022/12/04 05:36:10;;;;;;;27.20;12.52;;;1.10;99.90;;;;;;4985515;28;20293;-34
2022/12/04 05:38:36;;;;;;;16.20;8.18;;;1.10;99.90;;;;;;4985325;28;20038;-35
2022/12/04 05:41:04;;;;;;;11.63;7.07;;;1.10;99.90;;;;;;4987806;28;20048;-35
2022/12/04 05:43:30;;;;;;;27.70;8.48;;;1.00;99.90;;;;;;4989245;28;22285;-30
2022/12/04 05:46:00;;;;;;;14.60;7.20;;;1.00;99.90;;;;;;4992651;28;20052;-33
2022/12/04 05:48:26;;;;;;;11.73;6.25;;;1.00;99.90;;;;;;4988341;28;21133;-32
2022/12/04 05:50:52;;;;;;;22.65;8.90;;;1.00;99.90;;;;;;4988312;28;20036;-34
2022/12/04 05:53:17;;;;;;;25.70;11.98;;;1.10;99.90;;;;;;4987933;28;20033;-31
2022/12/04 05:55:43;;;;;;;16.85;7.30;;;1.10;99.90;;;;;;4989166;28;20034;-33
2022/12/04 05:58:08;;;;;;;16.25;8.00;;;1.10;99.90;;;;;;4988397;28;20064;-34
2022/12/04 06:00:34;;;;;;;16.52;7.10;;;1.10;99.90;;;;;;4994042;28;20041;-35
2022/12/04 06:03:00;;;;;;;17.10;7.85;;;1.10;99.90;;;;;;4998328;28;20022;-30
2022/12/04 06:05:25;;;;;;;17.70;8.32;;;1.00;99.90;;;;;;5006348;28;20037;-30
2022/12/04 06:07:51;;;;;;;17.83;8.38;;;1.00;99.90;;;;;;5004386;28;20522;-31
2022/12/04 06:10:16;;;;;;;17.52;8.55;;;0.90;99.90;;;;;;5007225;28;20034;-32
2022/12/04 06:12:42;;;;;;;16.38;8.77;;;0.90;99.90;;;;;;5005504;28;20506;-33
2022/12/04 06:15:08;;;;;;;20.85;8.50;;;0.90;99.90;;;;;;4988556;28;20048;-35
2022/12/04 06:17:33;;;;;;;20.02;8.73;;;0.90;99.90;;;;;;4990292;28;20026;-32
2022/12/04 06:19:59;;;;;;;16.10;8.25;;;0.90;99.90;;;;;;4991558;28;20046;-35
2022/12/04 06:22:25;;;;;;;22.55;9.80;;;0.90;99.90;;;;;;4989503;28;20724;-33
2022/12/04 06:24:50;;;;;;;21.13;8.48;;;0.80;99.90;;;;;;4990602;28;20091;-36
2022/12/04 06:27:16;;;;;;;16.52;7.97;;;0.90;99.90;;;;;;4989609;28;20038;-34
2022/12/04 06:29:41;;;;;;;13.20;7.55;;;0.80;99.90;;;;;;4988330;28;20037;-34
2022/12/04 06:32:07;;;;;;;15.75;7.40;;;0.90;99.90;;;;;;4992284;28;20088;-34
2022/12/04 06:34:33;;;;;;;13.82;7.22;;;0.90;99.90;;;;;;4989657;28;20107;-34
2022/12/04 06:36:58;;;;;;;16.80;8.20;;;0.90;99.90;;;;;;4989807;28;20030;-32
2022/12/04 06:39:24;;;;;;;22.30;9.30;;;0.90;99.90;;;;;;4988978;28;20676;-33
2022/12/04 06:41:50;;;;;;;19.88;9.95;;;1.00;99.90;;;;;;5004536;28;20030;-34
2022/12/04 06:44:15;;;;;;;14.00;8.27;;;1.00;99.90;;;;;;4990062;28;20037;-35
2022/12/04 06:46:41;;;;;;;20.73;9.25;;;1.00;99.90;;;;;;4990400;28;20044;-33
2022/12/04 06:49:09;;;;;;;25.52;9.13;;;0.90;99.90;;;;;;4992643;28;21308;-33
2022/12/04 06:51:36;;;;;;;22.65;9.23;;;0.90;99.90;;;;;;4990778;28;21856;-35
2022/12/04 06:54:02;;;;;;;19.42;7.85;;;0.90;99.90;;;;;;4989461;28;20436;-36
2022/12/04 06:56:30;;;;;;;18.75;8.32;;;0.90;99.90;;;;;;4989943;28;20049;-34
2022/12/04 06:58:58;;;;;;;18.20;8.57;;;1.00;99.90;;;;;;4990558;28;20092;-34
2022/12/04 07:01:26;;;;;;;18.70;8.98;;;1.00;99.90;;;;;;4989296;28;20042;-31
2022/12/04 07:03:53;;;;;;;20.15;9.48;;;1.00;99.90;;;;;;4989949;28;20048;-33
2022/12/04 07:06:23;;;;;;;23.58;9.57;;;1.00;99.90;;;;;;4991787;28;20465;-32
2022/12/04 07:08:59;;;;;;;22.15;9.15;;;1.00;99.90;;;;;;4992768;28;20026;-34
2022/12/04 07:11:24;;;;;;;21.13;9.77;;;1.00;99.90;;;;;;4988761;28;20084;-32
2022/12/04 07:13:50;;;;;;;21.10;8.50;;;1.00;99.90;;;;;;4987296;28;20515;-35
2022/12/04 07:16:19;;;;;;;20.27;8.70;;;1.00;99.90;;;;;;4988655;28;21992;-34
2022/12/04 07:18:49;;;;;;;22.77;8.77;;;1.00;99.90;;;;;;4990205;28;20034;-33
2022/12/04 07:21:18;;;;;;;16.17;7.30;;;1.10;99.90;;;;;;4988558;28;20038;-33
2022/12/04 07:23:46;;;;;;;18.38;9.55;;;1.10;99.90;;;;;;4986760;28;20140;-34
2022/12/04 07:26:12;;;;;;;24.48;10.10;;;1.00;99.90;;;;;;4987778;28;20029;-32
2022/12/04 07:28:39;;;;;;;34.15;11.45;;;1.00;99.90;;;;;;4988277;28;20034;-32
2022/12/04 07:31:06;;;;;;;27.42;9.13;;;1.10;99.90;;;;;;4989508;28;20030;-35
2022/12/04 07:33:33;;;;;;;25.67;10.52;;;1.10;99.90;;;;;;4986858;28;20037;-34
2022/12/04 07:36:00;;;;;;;16.05;8.48;;;1.10;99.90;;;;;;4994945;28;20493;-31
2022/12/04 07:38:26;;;;;;;25.88;10.27;;;1.10;99.90;;;;;;5004827;28;20103;-33
2022/12/04 07:40:55;;;;;;;21.13;10.82;;;1.10;99.90;;;;;;5006245;28;20062;-33
2022/12/04 07:43:21;;;;;;;19.92;9.18;;;1.10;99.90;;;;;;5003495;28;20107;-32
2022/12/04 07:45:47;;;;;;;26.40;10.15;;;1.20;99.90;;;;;;5004898;28;20491;-32
2022/12/04 07:48:12;;;;;;;24.25;9.32;;;1.20;99.90;;;;;;5006596;28;20026;-31
2022/12/04 07:50:38;;;;;;;20.00;9.20;;;1.20;99.90;;;;;;5004006;28;20018;-32
2022/12/04 07:53:04;;;;;;;21.77;9.48;;;1.20;99.90;;;;;;5008103;28;20021;-32
2022/12/04 07:55:29;;;;;;;19.20;9.20;;;1.20;99.90;;;;;;5003676;28;20049;-31
2022/12/04 07:57:55;;;;;;;28.15;11.48;;;1.20;99.90;;;;;;5005942;28;20037;-33
2022/12/04 08:00:21;;;;;;;24.10;9.23;;;1.30;99.90;;;;;;5005831;28;20030;-32
2022/12/04 08:02:46;;;;;;;28.00;9.85;;;1.20;99.90;;;;;;5002318;28;20261;-31
2022/12/04 08:05:12;;;;;;;27.33;10.55;;;1.20;99.90;;;;;;5002711;28;20077;-32
2022/12/04 08:07:37;;;;;;;27.33;11.52;;;1.20;99.90;;;;;;5003984;28;20057;-31
2022/12/04 08:10:03;;;;;;;26.48;10.05;;;1.20;99.90;;;;;;5005506;28;20017;-31
2022/12/04 08:12:31;;;;;;;29.42;10.43;;;1.30;99.90;;;;;;5005215;28;20115;-31
2022/12/04 08:14:57;;;;;;;27.50;11.05;;;1.20;99.90;;;;;;5003627;28;20529;-34
2022/12/04 08:17:23;;;;;;;28.33;11.55;;;1.20;99.90;;;;;;5004938;28;20112;-32
2022/12/04 08:19:48;;;;;;;30.55;11.35;;;1.20;99.90;;;;;;5003129;28;20057;-31
2022/12/04 08:22:14;;;;;;;31.25;11.98;;;1.30;99.90;;;;;;5003524;28;20399;-31
2022/12/04 08:24:40;;;;;;;27.77;11.07;;;1.30;99.90;;;;;;5005344;28;20624;-32
2022/12/04 08:27:05;;;;;;;22.33;9.63;;;1.30;99.90;;;;;;5006619;28;20038;-33
2022/12/04 08:29:31;;;;;;;27.50;10.40;;;1.30;99.90;;;;;;5003907;28;20045;-31
2022/12/04 08:31:57;;;;;;;30.90;11.48;;;1.30;99.90;;;;;;5006791;28;20034;-32
2022/12/04 08:34:22;;;;;;;29.67;11.40;;;1.30;99.90;;;;;;5000344;28;20164;-31
2022/12/04 08:36:48;;;;;;;27.10;10.65;;;1.30;99.90;;;;;;5003680;28;20559;-33
2022/12/04 08:39:14;;;;;;;22.15;8.65;;;1.30;99.90;;;;;;5004990;28;20037;-34
2022/12/04 08:41:39;;;;;;;24.13;9.85;;;1.30;99.90;;;;;;5005043;28;20476;-31
2022/12/04 08:44:05;;;;;;;32.00;11.65;;;1.30;99.90;;;;;;5006848;28;20106;-32
2022/12/04 08:46:31;;;;;;;29.02;11.45;;;1.30;99.90;;;;;;5004738;28;20487;-31
2022/12/04 08:48:56;;;;;;;22.45;10.18;;;1.40;99.90;;;;;;5007911;28;20034;-32
2022/12/04 08:51:25;;;;;;;23.40;10.70;;;1.40;99.90;;;;;;5005530;28;20026;-36
2022/12/04 08:53:59;;;;;;;23.77;9.75;;;1.40;99.90;;;;;;5004549;28;20022;-32
2022/12/04 08:56:26;;;;;;;31.58;11.77;;;1.40;99.90;;;;;;4998894;28;20030;-31
2022/12/04 08:58:52;;;;;;;32.83;12.43;;;1.40;99.90;;;;;;5001837;28;20023;-32
2022/12/04 09:01:17;;;;;;;26.95;10.52;;;1.40;99.90;;;;;;5003750;28;20577;-35
2022/12/04 09:03:43;;;;;;;28.45;11.20;;;1.40;99.90;;;;;;5003166;28;20041;-33
2022/12/04 09:06:11;;;;;;;28.75;10.27;;;1.50;99.90;;;;;;4999522;28;20128;-32
2022/12/04 09:08:37;;;;;;;32.17;11.10;;;1.50;99.90;;;;;;5004169;28;20025;-37
2022/12/04 09:11:05;;;;;;;27.48;10.23;;;1.50;99.90;;;;;;5014608;28;20663;-33
2022/12/04 09:13:30;;;;;;;24.52;10.77;;;1.50;99.90;;;;;;5001959;28;20028;-34
2022/12/04 09:15:56;;;;;;;28.65;10.80;;;1.60;99.90;;;;;;4997857;28;20034;-33
2022/12/04 09:18:22;;;;;;;40.92;12.20;;;1.60;99.90;;;;;;5004060;28;20034;-34
2022/12/04 09:20:58;;;;;;;25.85;10.52;;;1.60;99.90;;;;;;5004422;28;20507;-35
2022/12/04 09:23:24;;;;;;;29.70;10.57;;;1.60;99.90;;;;;;4995712;28;20293;-35
2022/12/04 09:25:51;;;;;;;27.48;9.60;;;1.60;99.90;;;;;;5004426;28;20611;-32
2022/12/04 09:28:16;;;;;;;27.10;11.57;;;1.60;99.90;;;;;;5005734;28;20073;-31
2022/12/04 09:30:42;;;;;;;36.30;10.70;;;1.60;99.90;;;;;;5006404;28;20111;-31
2022/12/04 09:33:07;;;;;;;29.60;11.45;;;1.70;99.90;;;;;;5008024;28;20475;-31
2022/12/04 09:35:33;;;;;;;23.95;10.60;;;1.60;99.90;;;;;;5006705;28;20398;-32
2022/12/04 09:37:59;;;;;;;32.20;11.98;;;1.60;99.90;;;;;;5004150;28;20030;-33
2022/12/04 09:40:34;;;;;;;24.17;11.75;;;1.70;99.90;;;;;;5008055;28;20030;-32
2022/12/04 09:43:27;;;;;;;26.27;11.55;;;1.70;99.90;;;;;;5003182;28;20525;-32
2022/12/04 09:45:59;;;;;;;34.50;11.38;;;1.70;99.90;;;;;;5006796;28;20556;-31
2022/12/04 09:48:35;;;;;;;27.50;10.27;;;1.80;99.90;;;;;;5007866;28;20069;-33
2022/12/04 09:51:03;;;;;;;27.58;10.77;;;1.70;99.90;;;;;;5008208;28;20037;-33
2022/12/04 09:53:43;;;;;;;35.50;12.57;;;1.70;99.90;;;;;;5010301;28;20022;-33
2022/12/04 09:56:13;;;;;;;25.40;10.93;;;1.80;99.90;;;;;;5002557;28;20038;-36
2022/12/04 09:58:58;;;;;;;31.80;11.30;;;1.70;99.90;;;;;;5006515;28;20022;-32
2022/12/04 10:01:44;;;;;;;31.70;10.77;;;1.70;99.90;;;;;;5009300;28;20030;-31
2022/12/04 10:04:11;;;;;;;31.58;11.75;;;1.80;99.90;;;;;;5003221;28;20120;-32
2022/12/04 10:07:01;;;;;;;28.23;12.05;;;1.80;99.90;;;;;;5005607;28;20099;-33
2022/12/04 10:09:49;;;;;;;29.88;10.05;;;1.70;99.90;;;;;;5004640;28;20097;-34
2022/12/04 10:12:44;;;;;;;26.00;10.35;;;1.80;99.90;;;;;;5006553;28;20030;-36
2022/12/04 10:15:39;;;;;;;28.45;10.55;;;1.80;99.90;;;;;;5007656;28;20496;-33
2022/12/04 10:18:42;;;;;;;26.83;11.02;;;1.80;99.90;;;;;;5004782;28;20045;-32
2022/12/04 10:21:33;;;;;;;26.55;10.32;;;1.80;99.90;;;;;;5005154;28;20026;-32
2022/12/04 10:24:44;;;;;;;21.70;10.52;;;1.80;99.90;;;;;;5009201;28;20108;-34
2022/12/04 10:27:29;;;;;;;30.88;10.88;;;1.80;99.90;;;;;;4933156;28;20035;-34
2022/12/04 10:30:03;;;;;;;22.13;8.80;;;1.80;99.90;;;;;;4941606;28;20036;-31
2022/12/04 10:32:32;;;;;;;24.88;10.77;;;1.80;99.90;;;;;;4986179;28;20030;-32
2022/12/04 10:35:08;;;;;;;27.48;11.68;;;1.80;99.90;;;;;;5007820;28;20399;-31
2022/12/04 10:37:39;;;;;;;24.35;9.65;;;1.80;99.90;;;;;;4999061;28;20117;-35
2022/12/04 10:40:20;;;;;;;23.48;9.45;;;1.80;99.90;;;;;;5008384;28;20084;-32
2022/12/04 10:43:10;;;;;;;26.48;10.00;;;1.90;99.90;;;;;;5005818;28;20517;-32
2022/12/04 10:45:36;;;;;;;20.77;8.15;;;1.90;99.90;;;;;;5005176;28;20038;-34
2022/12/04 10:48:03;;;;;;;22.30;10.80;;;1.90;99.90;;;;;;5001958;28;20037;-31
2022/12/04 10:50:29;;;;;;;22.40;9.50;;;1.90;99.90;;;;;;5005402;28;20058;-31
2022/12/04 10:52:55;;;;;;;23.98;9.75;;;1.90;99.90;;;;;;5004521;28;20061;-32
2022/12/04 10:55:32;;;;;;;24.83;9.93;;;1.90;99.90;;;;;;5006982;28;20091;-32
2022/12/04 10:57:58;;;;;;;27.80;11.27;;;1.90;99.90;;;;;;5003041;28;20041;-31
2022/12/04 11:00:24;;;;;;;25.23;9.82;;;2.00;99.90;;;;;;5003217;28;20022;-32
2022/12/04 11:02:51;;;;;;;21.55;8.90;;;2.00;99.90;;;;;;5004563;28;20376;-31
2022/12/04 11:05:36;;;;;;;25.00;10.75;;;2.00;99.90;;;;;;4999916;28;20034;-32
2022/12/04 11:08:05;;;;;;;24.75;9.95;;;2.00;99.90;;;;;;5003158;28;20259;-31
2022/12/04 11:10:40;;;;;;;24.63;9.30;;;2.00;99.90;;;;;;5004559;28;20383;-34
2022/12/04 11:13:15;;;;;;;23.67;10.30;;;2.00;99.90;;;;;;5006838;28;20562;-34
2022/12/04 11:15:55;;;;;;;29.33;10.48;;;2.00;99.90;;;;;;5004443;28;20048;-37
2022/12/04 11:18:29;;;;;;;18.40;7.25;;;2.00;99.90;;;;;;5002616;28;20558;-33
2022/12/04 11:21:13;;;;;;;30.65;11.50;;;2.10;99.90;;;;;;5002382;28;20108;-33
2022/12/04 11:23:45;;;;;;;21.05;10.48;;;2.10;99.90;;;;;;4998750;28;20129;-36
2022/12/04 11:26:11;;;;;;;29.25;11.50;;;2.10;99.90;;;;;;4998582;28;20034;-32
2022/12/04 11:28:39;;;;;;;19.95;9.68;;;2.10;99.90;;;;;;4999859;28;20383;-33
2022/12/04 11:31:09;;;;;;;25.27;10.48;;;2.10;99.90;;;;;;5000729;28;20827;-32
2022/12/04 11:33:43;;;;;;;24.77;9.70;;;2.10;99.90;;;;;;5003178;28;20475;-31
2022/12/04 11:36:33;;;;;;;17.30;8.07;;;2.10;99.90;;;;;;5004573;28;20542;-35
2022/12/04 11:39:29;;;;;;;18.85;8.70;;;2.10;99.90;;;;;;5001103;28;20569;-35
2022/12/04 11:42:19;;;;;;;23.15;8.93;;;2.20;99.90;;;;;;4993210;28;20033;-35
2022/12/04 11:45:19;;;;;;;17.20;8.60;;;2.20;99.90;;;;;;4992044;28;20335;-35
2022/12/04 11:47:54;;;;;;;22.48;8.73;;;2.30;99.90;;;;;;5005263;28;20053;-34
2022/12/04 11:50:46;;;;;;;18.80;9.73;;;2.30;99.90;;;;;;4998426;28;20467;-31
2022/12/04 11:53:37;;;;;;;24.60;10.15;;;2.20;99.90;;;;;;5004821;28;20036;-31
2022/12/04 11:56:37;;;;;;;21.75;9.18;;;2.20;99.90;;;;;;5003112;28;20355;-32
2022/12/04 11:59:11;;;;;;;20.17;9.25;;;2.20;99.90;;;;;;4996418;28;20057;-32
2022/12/04 12:01:55;;;;;;;17.83;8.18;;;2.10;99.90;;;;;;5000750;28;20517;-31
2022/12/04 12:05:10;;;;;;;25.20;10.30;;;2.10;99.90;;;;;;5002068;28;20033;-31
2022/12/04 12:08:01;;;;;;;25.20;10.18;;;2.10;99.90;;;;;;4986062;28;20172;-31
2022/12/04 12:10:34;;;;;;;30.63;11.05;;;2.00;99.90;;;;;;4998397;28;20026;-35
2022/12/04 12:13:21;;;;;;;24.42;10.77;;;2.00;99.90;;;;;;5003100;28;20510;-31
2022/12/04 12:16:15;;;;;;;27.27;9.80;;;2.00;99.90;;;;;;5004477;28;20426;-33
2022/12/04 12:18:41;;;;;;;20.02;8.73;;;2.00;99.90;;;;;;5007229;28;20104;-31
2022/12/04 12:21:26;;;;;;;23.40;9.77;;;2.00;99.90;;;;;;5005311;28;20182;-34
2022/12/04 12:24:22;;;;;;;22.58;8.85;;;2.00;99.90;;;;;;5006538;28;20080;-33
2022/12/04 12:26:59;;;;;;;23.40;8.70;;;2.10;99.90;;;;;;5004597;28;20022;-31
2022/12/04 12:29:25;;;;;;;22.15;9.95;;;2.00;99.90;;;;;;5005283;28;20368;-31
2022/12/04 12:32:21;;;;;;;27.25;9.77;;;2.00;99.90;;;;;;5003517;28;20037;-33
2022/12/04 12:34:47;;;;;;;32.75;10.98;;;2.00;99.90;;;;;;5005740;28;20037;-31
2022/12/04 12:37:20;;;;;;;26.58;10.65;;;2.00;99.90;;;;;;5004048;28;20038;-37
2022/12/04 12:40:06;;;;;;;29.88;10.27;;;1.90;99.90;;;;;;4997940;28;20037;-32
2022/12/04 12:42:37;;;;;;;33.35;12.43;;;1.90;99.90;;;;;;5005269;28;20037;-35
2022/12/04 12:45:20;;;;;;;30.42;11.18;;;1.90;99.90;;;;;;5007020;28;20037;-32
2022/12/04 12:47:49;;;;;;;24.95;9.38;;;1.90;99.90;;;;;;5000791;28;20141;-32
2022/12/04 12:50:23;;;;;;;22.35;9.85;;;1.90;99.90;;;;;;5005666;28;20495;-33
2022/12/04 12:52:57;;;;;;;26.00;9.05;;;1.80;99.90;;;;;;4999897;28;20042;-32
2022/12/04 12:55:44;;;;;;;33.45;9.93;;;1.80;99.90;;;;;;5001604;28;20431;-32
2022/12/04 12:58:28;;;;;;;23.65;9.25;;;1.90;99.90;;;;;;5000219;28;20034;-31
2022/12/04 13:01:06;;;;;;;16.88;7.90;;;1.80;99.90;;;;;;5002127;28;20056;-34
2022/12/04 13:03:56;;;;;;;18.00;9.07;;;1.90;99.90;;;;;;5004076;28;20033;-35
2022/12/04 13:06:29;;;;;;;24.92;11.55;;;1.90;99.90;;;;;;5006552;28;20124;-31
2022/12/04 13:09:19;;;;;;;21.75;9.18;;;1.90;99.90;;;;;;5005333;28;20503;-31
2022/12/04 13:11:48;;;;;;;18.23;8.85;;;2.00;99.90;;;;;;5006242;28;20486;-32
2022/12/04 13:14:14;;;;;;;16.83;8.80;;;2.00;99.90;;;;;;5004552;28;20032;-33
2022/12/04 13:16:53;;;;;;;16.02;8.48;;;2.00;99.90;;;;;;5008984;28;20041;-32
2022/12/04 13:19:27;;;;;;;19.25;8.40;;;2.10;99.90;;;;;;5003246;28;20061;-33